createdAt,value
2022-12-31T00:02:11.263Z,1.67
2022-12-31T00:04:39.663Z,1.67
2022-12-31T00:07:07.586Z,1.70
2022-12-31T00:09:36.857Z,1.50
2022-12-31T00:12:06.116Z,1.48
2022-12-31T00:14:34.020Z,1.52
2022-12-31T00:17:02.054Z,1.50
2022-12-31T00:19:30.487Z,1.58
2022-12-31T00:21:58.478Z,1.50
2022-12-31T00:24:31.342Z,1.80
2022-12-31T00:27:00.741Z,1.83
2022-12-31T00:29:28.695Z,2.20
2022-12-31T00:31:57.582Z,2.00
2022-12-31T00:34:25.636Z,2.22
2022-12-31T00:36:55.067Z,2.95
2022-12-31T00:39:23.003Z,2.93
2022-12-31T00:41:53.914Z,2.50
2022-12-31T00:44:23.752Z,2.85
2022-12-31T00:46:52.238Z,3.15
2022-12-31T00:49:20.638Z,2.85
2022-12-31T00:51:49.555Z,2.65
2022-12-31T00:54:17.485Z,2.75
2022-12-31T00:56:46.050Z,2.60
2022-12-31T00:59:14.434Z,2.50
2022-12-31T01:01:44.620Z,2.75
2022-12-31T01:04:15.821Z,2.42
2022-12-31T01:06:44.748Z,2.50
2022-12-31T01:09:14.734Z,2.30
2022-12-31T01:14:14.216Z,2.45
2022-12-31T01:16:46.004Z,2.55
2022-12-31T01:19:16.672Z,2.80
2022-12-31T01:21:46.945Z,2.63
2022-12-31T01:26:43.537Z,2.03
2022-12-31T01:29:14.469Z,1.77
2022-12-31T01:31:43.908Z,1.90
2022-12-31T01:34:11.891Z,2.10
2022-12-31T01:36:41.193Z,2.05
2022-12-31T01:39:10.416Z,1.50
2022-12-31T01:41:42.380Z,1.35
2022-12-31T01:44:59.154Z,1.50
2022-12-31T01:47:38.315Z,1.40
2022-12-31T01:50:13.040Z,0.80
2022-12-31T01:52:44.120Z,0.82
2022-12-31T01:55:17.520Z,0.82
2022-12-31T01:57:49.448Z,0.80
2022-12-31T02:00:18.123Z,1.00
2022-12-31T02:02:47.923Z,0.90
2022-12-31T02:05:21.933Z,0.82
2022-12-31T02:07:51.104Z,1.15
2022-12-31T02:10:19.591Z,1.02
2022-12-31T02:12:49.670Z,1.20
2022-12-31T02:15:18.289Z,0.95
2022-12-31T02:17:59.616Z,0.90
2022-12-31T02:21:08.583Z,0.80
2022-12-31T02:24:04.464Z,1.05
2022-12-31T02:26:52.295Z,0.80
2022-12-31T02:29:58.089Z,0.90
2022-12-31T02:32:33.190Z,1.00
2022-12-31T02:35:09.810Z,1.00
2022-12-31T02:37:40.228Z,1.08
2022-12-31T02:40:12.644Z,1.13
2022-12-31T02:42:40.616Z,1.13
2022-12-31T02:45:12.912Z,0.80
2022-12-31T02:47:51.722Z,0.98
2022-12-31T02:50:34.210Z,1.02
2022-12-31T02:53:15.261Z,0.93
2022-12-31T02:55:50.801Z,1.17
2022-12-31T02:58:48.902Z,1.13
2022-12-31T03:01:39.720Z,1.92
2022-12-31T03:04:23.053Z,2.08
2022-12-31T03:06:54.099Z,2.00
2022-12-31T03:09:22.168Z,1.73
2022-12-31T03:12:08.433Z,1.52
2022-12-31T03:14:36.407Z,1.02
2022-12-31T03:17:04.356Z,1.00
2022-12-31T03:19:52.432Z,1.05
2022-12-31T03:22:29.324Z,0.68
2022-12-31T03:25:18.404Z,0.60
2022-12-31T03:27:47.262Z,0.50
2022-12-31T03:30:16.063Z,0.40
2022-12-31T03:32:46.280Z,0.30
2022-12-31T03:35:19.245Z,0.40
2022-12-31T03:37:48.983Z,0.40
2022-12-31T03:40:17.975Z,0.30
2022-12-31T03:42:46.365Z,0.22
2022-12-31T03:45:15.511Z,0.20
2022-12-31T03:47:43.813Z,0.30
2022-12-31T03:50:14.256Z,0.20
2022-12-31T03:52:44.606Z,0.30
2022-12-31T03:57:41.379Z,0.20
2022-12-31T04:02:41.763Z,0.20
2022-12-31T04:05:11.184Z,0.25
2022-12-31T04:07:40.403Z,0.30
2022-12-31T04:10:12.086Z,0.30
2022-12-31T04:12:41.179Z,0.20
2022-12-31T04:15:10.358Z,0.10
2022-12-31T04:17:38.830Z,0.10
2022-12-31T04:20:08.411Z,0.20
2022-12-31T04:22:37.086Z,0.40
2022-12-31T04:25:05.759Z,0.50
2022-12-31T04:27:36.007Z,0.17
2022-12-31T04:30:03.971Z,0.20
2022-12-31T04:32:32.789Z,0.10
2022-12-31T04:35:00.738Z,0.20
2022-12-31T04:37:29.248Z,0.22
2022-12-31T04:40:05.095Z,0.20
2022-12-31T04:42:36.097Z,0.55
2022-12-31T04:45:05.658Z,0.30
2022-12-31T04:47:33.621Z,0.30
2022-12-31T04:50:01.990Z,0.85
2022-12-31T04:52:30.854Z,0.40
2022-12-31T04:54:58.814Z,0.30
2022-12-31T04:57:27.290Z,0.40
2022-12-31T04:59:57.023Z,0.20
2022-12-31T05:02:25.185Z,0.22
2022-12-31T05:04:53.722Z,0.38
2022-12-31T05:07:21.728Z,0.30
2022-12-31T05:09:49.590Z,0.28
2022-12-31T05:12:18.408Z,0.40
2022-12-31T05:14:46.405Z,0.40
2022-12-31T05:17:15.705Z,0.28
2022-12-31T05:19:44.180Z,0.35
2022-12-31T05:22:30.194Z,0.40
2022-12-31T05:25:00.029Z,0.50
2022-12-31T05:27:31.030Z,0.50
2022-12-31T05:30:01.949Z,0.60
2022-12-31T05:32:31.277Z,0.70
2022-12-31T05:35:00.283Z,0.57
2022-12-31T05:37:30.151Z,0.50
2022-12-31T05:39:58.383Z,0.43
2022-12-31T05:42:27.045Z,0.70
2022-12-31T05:44:55.073Z,0.80
2022-12-31T05:47:23.482Z,0.90
2022-12-31T05:49:53.720Z,0.88
2022-12-31T05:52:21.997Z,0.70
2022-12-31T05:54:50.960Z,1.30
2022-12-31T05:57:18.879Z,1.20
2022-12-31T05:59:47.237Z,1.20
2022-12-31T06:02:15.696Z,1.20
2022-12-31T06:04:43.765Z,1.60
2022-12-31T06:07:13.213Z,1.20
2022-12-31T06:12:09.998Z,1.27
2022-12-31T06:14:43.783Z,1.42
2022-12-31T06:17:14.411Z,1.17
2022-12-31T06:19:42.409Z,1.10
2022-12-31T06:22:12.630Z,0.77
2022-12-31T06:24:40.613Z,0.60
2022-12-31T06:27:11.904Z,0.65
2022-12-31T06:29:39.836Z,0.50
2022-12-31T06:32:08.337Z,0.30
2022-12-31T06:34:36.614Z,0.40
2022-12-31T06:37:04.613Z,0.28
2022-12-31T06:39:34.354Z,0.50
2022-12-31T06:42:02.354Z,0.30
2022-12-31T06:44:30.254Z,0.38
2022-12-31T06:46:59.105Z,0.20
2022-12-31T06:49:27.117Z,0.20
2022-12-31T06:51:55.475Z,0.35
2022-12-31T06:54:24.297Z,0.40
2022-12-31T06:56:54.089Z,0.32
2022-12-31T06:59:28.671Z,0.30
2022-12-31T07:02:42.795Z,0.22
2022-12-31T07:05:35.060Z,0.30
2022-12-31T07:08:11.948Z,0.30
2022-12-31T07:10:47.877Z,0.28
2022-12-31T07:13:30.192Z,0.45
2022-12-31T07:16:11.033Z,0.30
2022-12-31T07:18:47.377Z,0.20
2022-12-31T07:21:18.971Z,0.32
2022-12-31T07:23:47.725Z,0.10
2022-12-31T07:26:25.727Z,0.20
2022-12-31T07:29:04.001Z,0.40
2022-12-31T07:31:47.865Z,0.22
2022-12-31T07:34:24.639Z,0.30
2022-12-31T07:37:02.400Z,0.10
2022-12-31T07:39:40.699Z,0.25
2022-12-31T07:42:16.436Z,0.30
2022-12-31T07:45:02.361Z,0.20
2022-12-31T07:47:31.553Z,0.20
2022-12-31T07:50:00.103Z,0.25
2022-12-31T07:52:29.601Z,0.22
2022-12-31T07:54:57.498Z,0.40
2022-12-31T07:57:37.238Z,0.30
2022-12-31T08:00:13.192Z,0.15
2022-12-31T08:03:05.280Z,0.38
2022-12-31T08:05:36.632Z,0.30
2022-12-31T08:08:23.918Z,0.30
2022-12-31T08:11:02.914Z,0.52
2022-12-31T08:13:32.225Z,0.45
2022-12-31T08:16:03.935Z,0.15
2022-12-31T08:18:32.357Z,0.20
2022-12-31T08:21:11.503Z,0.20
2022-12-31T08:23:46.857Z,0.30
2022-12-31T08:26:25.370Z,0.20
2022-12-31T08:29:05.412Z,0.40
2022-12-31T08:31:41.627Z,0.40
2022-12-31T08:34:18.679Z,0.50
2022-12-31T08:36:54.063Z,0.30
2022-12-31T08:39:38.824Z,0.32
2022-12-31T08:42:15.645Z,0.50
2022-12-31T08:44:51.606Z,0.80
2022-12-31T08:47:31.904Z,0.40
2022-12-31T08:50:05.315Z,0.30
2022-12-31T08:52:33.803Z,0.30
2022-12-31T08:55:04.257Z,0.50
2022-12-31T08:57:41.066Z,0.50
2022-12-31T09:00:13.526Z,0.30
2022-12-31T09:03:13.572Z,0.30
2022-12-31T09:05:54.879Z,0.70
2022-12-31T09:08:31.978Z,0.30
2022-12-31T09:11:05.198Z,0.43
2022-12-31T09:13:48.560Z,0.30
2022-12-31T09:16:21.729Z,0.32
2022-12-31T09:18:52.025Z,0.45
2022-12-31T09:23:48.573Z,0.40
2022-12-31T09:26:33.254Z,0.30
2022-12-31T09:29:07.321Z,0.40
2022-12-31T09:31:41.837Z,0.50
2022-12-31T09:34:20.412Z,0.40
2022-12-31T09:36:52.586Z,0.30
2022-12-31T09:39:30.681Z,0.40
2022-12-31T09:42:19.860Z,0.40
2022-12-31T09:45:27.497Z,0.45
2022-12-31T09:48:43.490Z,0.35
2022-12-31T09:51:25.571Z,0.32
2022-12-31T09:54:16.426Z,0.40
2022-12-31T09:56:52.900Z,0.43
2022-12-31T09:59:31.489Z,0.57
2022-12-31T10:02:10.944Z,0.30
2022-12-31T10:04:57.962Z,0.30
2022-12-31T10:07:37.736Z,0.30
2022-12-31T10:10:18.349Z,0.30
2022-12-31T10:13:10.035Z,0.43
2022-12-31T10:16:17.315Z,0.30
2022-12-31T10:19:41.052Z,0.40
2022-12-31T10:22:37.178Z,0.32
2022-12-31T10:25:38.463Z,0.47
2022-12-31T10:28:19.797Z,0.45
2022-12-31T10:33:32.631Z,0.40
2022-12-31T10:36:09.271Z,0.30
2022-12-31T10:38:51.318Z,0.28
2022-12-31T10:41:56.782Z,0.38
2022-12-31T10:44:52.912Z,0.25
2022-12-31T10:47:47.776Z,0.30
2022-12-31T10:50:48.341Z,0.30
2022-12-31T10:53:47.178Z,0.55
2022-12-31T10:56:53.182Z,0.30
2022-12-31T10:59:57.353Z,0.40
2022-12-31T11:02:55.375Z,0.40
2022-12-31T11:06:14.269Z,0.30
2022-12-31T11:09:23.806Z,0.40
2022-12-31T11:11:56.759Z,0.50
2022-12-31T11:14:52.559Z,0.47
2022-12-31T11:17:39.421Z,0.65
2022-12-31T11:20:43.942Z,0.50
2022-12-31T11:23:24.502Z,0.70
2022-12-31T11:26:02.980Z,0.55
2022-12-31T11:28:51.472Z,0.50
2022-12-31T11:31:32.747Z,0.40
2022-12-31T11:34:15.171Z,0.50
2022-12-31T11:36:51.426Z,0.60
2022-12-31T11:39:41.233Z,0.60
2022-12-31T11:42:21.983Z,0.95
2022-12-31T11:44:56.950Z,0.50
2022-12-31T11:48:28.682Z,0.60
2022-12-31T11:50:46.606Z,0.60
2022-12-31T11:53:35.779Z,0.38
2022-12-31T11:56:17.641Z,0.50
2022-12-31T11:58:50.670Z,0.40
2022-12-31T12:01:23.829Z,0.65
2022-12-31T12:03:52.008Z,0.40
2022-12-31T12:06:27.245Z,0.60
2022-12-31T12:08:57.931Z,0.40
2022-12-31T12:11:29.153Z,0.50
2022-12-31T12:13:58.667Z,0.50
2022-12-31T12:16:29.263Z,0.50
2022-12-31T12:19:13.123Z,0.50
2022-12-31T12:21:47.806Z,0.70
2022-12-31T12:24:21.278Z,0.70
2022-12-31T12:26:51.164Z,0.45
2022-12-31T12:29:22.810Z,0.65
2022-12-31T12:31:59.159Z,0.60
2022-12-31T12:34:30.014Z,0.85
2022-12-31T12:36:58.612Z,0.70
2022-12-31T12:39:28.668Z,0.40
2022-12-31T12:42:05.691Z,0.63
2022-12-31T12:44:35.815Z,0.40
2022-12-31T12:47:07.371Z,0.65
2022-12-31T12:49:40.697Z,0.60
2022-12-31T12:52:35.692Z,0.68
2022-12-31T12:55:17.358Z,0.50
2022-12-31T12:57:50.272Z,0.50
2022-12-31T13:00:21.897Z,0.52
2022-12-31T13:03:48.684Z,0.50
2022-12-31T13:06:38.023Z,0.50
2022-12-31T13:09:24.922Z,0.65
2022-12-31T13:12:07.688Z,0.70
2022-12-31T13:14:45.915Z,0.50
2022-12-31T13:17:46.061Z,0.40
2022-12-31T13:20:26.365Z,0.50
2022-12-31T13:22:59.837Z,0.43
2022-12-31T13:25:36.660Z,0.77
2022-12-31T13:28:07.580Z,0.82
2022-12-31T13:30:41.685Z,0.63
2022-12-31T13:33:18.850Z,0.50
2022-12-31T13:35:52.219Z,0.60
2022-12-31T13:38:23.762Z,0.50
2022-12-31T13:40:59.844Z,0.50
2022-12-31T13:43:38.027Z,0.70
2022-12-31T13:46:15.591Z,0.52
2022-12-31T13:48:50.743Z,1.02
2022-12-31T13:51:29.924Z,0.50
2022-12-31T13:54:02.966Z,0.50
2022-12-31T13:56:37.845Z,0.60
2022-12-31T13:59:13.262Z,0.60
2022-12-31T14:01:48.311Z,0.70
2022-12-31T14:04:22.512Z,0.93
2022-12-31T14:06:57.286Z,0.70
2022-12-31T14:09:27.384Z,0.60
2022-12-31T14:12:09.276Z,0.77
2022-12-31T14:14:47.171Z,0.55
2022-12-31T14:17:25.549Z,0.80
2022-12-31T14:20:04.034Z,0.45
2022-12-31T14:22:44.556Z,0.80
2022-12-31T14:25:21.097Z,0.70
2022-12-31T14:27:52.696Z,0.55
2022-12-31T14:30:22.604Z,0.50
2022-12-31T14:33:10.055Z,0.73
2022-12-31T14:35:47.891Z,0.77
2022-12-31T14:38:26.782Z,1.13
2022-12-31T14:41:09.385Z,1.10
2022-12-31T14:43:47.213Z,1.00
2022-12-31T14:46:25.472Z,1.02
2022-12-31T14:49:08.282Z,0.77
2022-12-31T14:51:38.547Z,1.00
2022-12-31T14:54:06.631Z,0.82
2022-12-31T14:56:41.904Z,1.15
2022-12-31T14:59:28.641Z,1.00
2022-12-31T15:01:59.675Z,1.10
2022-12-31T15:04:50.295Z,1.40
2022-12-31T15:07:26.597Z,1.08
2022-12-31T15:10:09.302Z,0.90
2022-12-31T15:12:50.995Z,1.08
2022-12-31T15:16:03.110Z,1.33
2022-12-31T15:18:44.364Z,1.00
2022-12-31T15:21:35.639Z,1.48
2022-12-31T15:24:15.454Z,1.20
2022-12-31T15:26:50.463Z,1.10
2022-12-31T15:29:29.529Z,1.13
2022-12-31T15:31:59.724Z,1.00
2022-12-31T15:34:31.598Z,0.90
2022-12-31T15:37:02.112Z,3.20
2022-12-31T15:39:45.592Z,0.82
2022-12-31T15:42:38.445Z,1.00
2022-12-31T15:45:16.473Z,1.10
2022-12-31T15:47:49.871Z,0.80
2022-12-31T15:50:21.782Z,1.02
2022-12-31T15:52:54.204Z,1.00
2022-12-31T15:55:32.291Z,0.60
2022-12-31T15:58:05.556Z,1.00
2022-12-31T16:00:52.189Z,1.00
2022-12-31T16:03:24.593Z,0.80
2022-12-31T16:06:01.540Z,0.90
2022-12-31T16:08:33.363Z,0.95
2022-12-31T16:11:05.408Z,0.90
2022-12-31T16:13:38.259Z,1.00
2022-12-31T16:16:08.702Z,0.80
2022-12-31T16:18:39.835Z,1.17
2022-12-31T16:21:23.646Z,1.05
2022-12-31T16:23:53.184Z,1.00
2022-12-31T16:26:24.377Z,0.60
2022-12-31T16:28:53.496Z,0.90
2022-12-31T16:31:22.118Z,0.90
2022-12-31T16:33:51.406Z,1.15
2022-12-31T16:36:22.072Z,0.90
2022-12-31T16:38:50.311Z,1.05
2022-12-31T16:41:20.390Z,1.05
2022-12-31T16:43:51.025Z,1.00
2022-12-31T16:46:25.964Z,1.13
2022-12-31T16:48:56.352Z,0.90
2022-12-31T16:51:30.656Z,0.82
2022-12-31T16:53:59.617Z,0.90
2022-12-31T16:56:33.378Z,1.20
2022-12-31T16:59:05.724Z,1.27
2022-12-31T17:01:37.163Z,1.17
2022-12-31T17:04:11.212Z,1.00
2022-12-31T17:06:40.078Z,1.30
2022-12-31T17:09:21.154Z,0.90
2022-12-31T17:11:53.579Z,1.20
2022-12-31T17:14:25.441Z,1.30
2022-12-31T17:17:03.158Z,1.27
2022-12-31T17:19:40.293Z,1.27
2022-12-31T17:22:14.248Z,1.17
2022-12-31T17:24:43.509Z,1.30
2022-12-31T17:27:13.442Z,1.40
2022-12-31T17:29:44.838Z,0.90
2022-12-31T17:32:31.078Z,1.15
2022-12-31T17:35:00.018Z,1.02
2022-12-31T17:37:30.409Z,1.17
2022-12-31T17:40:40.638Z,1.20
2022-12-31T17:42:50.983Z,1.13
2022-12-31T17:45:23.208Z,1.00
2022-12-31T17:47:56.253Z,0.90
2022-12-31T17:50:26.770Z,0.90
2022-12-31T17:52:59.019Z,1.00
2022-12-31T17:55:27.569Z,1.27
2022-12-31T17:57:57.891Z,1.00
2022-12-31T18:00:28.899Z,1.17
2022-12-31T18:02:57.096Z,1.20
2022-12-31T18:05:25.811Z,1.00
2022-12-31T18:07:54.909Z,0.98
2022-12-31T18:10:25.664Z,0.93
2022-12-31T18:12:55.098Z,0.73
2022-12-31T18:15:25.846Z,1.00
2022-12-31T18:17:56.133Z,0.98
2022-12-31T18:22:53.326Z,1.35
2022-12-31T18:25:23.720Z,1.08
2022-12-31T18:27:52.491Z,1.05
2022-12-31T18:30:21.004Z,1.00
2022-12-31T18:32:49.056Z,1.40
2022-12-31T18:36:06.517Z,0.98
2022-12-31T18:38:14.603Z,1.20
2022-12-31T18:40:46.496Z,1.40
2022-12-31T18:43:17.801Z,0.70
2022-12-31T18:45:46.316Z,1.23
2022-12-31T18:48:14.836Z,0.88
2022-12-31T18:50:44.723Z,0.70
2022-12-31T18:53:18.367Z,0.90
2022-12-31T18:55:50.015Z,0.90
2022-12-31T18:58:17.989Z,0.82
2022-12-31T19:00:46.814Z,0.90
2022-12-31T19:03:18.184Z,1.00
2022-12-31T19:05:49.771Z,0.80
2022-12-31T19:08:19.735Z,0.80
2022-12-31T19:10:50.773Z,1.13
2022-12-31T19:13:20.492Z,1.08
2022-12-31T19:15:50.969Z,1.00
2022-12-31T19:18:19.226Z,1.05
2022-12-31T19:20:49.364Z,0.93
2022-12-31T19:23:19.519Z,1.38
2022-12-31T19:25:48.523Z,1.25
2022-12-31T19:28:18.684Z,1.15
2022-12-31T19:30:46.966Z,1.23
2022-12-31T19:33:15.925Z,1.00
2022-12-31T19:35:44.869Z,1.00
2022-12-31T19:38:18.931Z,1.02
2022-12-31T19:40:47.939Z,1.20
2022-12-31T19:43:18.511Z,1.30
2022-12-31T19:45:48.534Z,0.93
2022-12-31T19:48:19.210Z,1.50
2022-12-31T19:50:50.172Z,1.02
2022-12-31T19:53:22.143Z,1.38
2022-12-31T19:55:51.721Z,1.10
2022-12-31T19:58:21.435Z,0.93
2022-12-31T20:00:56.915Z,1.17
2022-12-31T20:03:30.348Z,1.48
2022-12-31T20:06:03.664Z,1.30
2022-12-31T20:08:34.627Z,1.05
2022-12-31T20:11:08.889Z,1.50
2022-12-31T20:13:37.956Z,1.13
2022-12-31T20:16:08.613Z,1.10
2022-12-31T20:18:38.853Z,1.13
2022-12-31T20:21:10.876Z,0.80
2022-12-31T20:23:41.322Z,1.13
2022-12-31T20:26:09.420Z,0.98
2022-12-31T20:28:37.511Z,1.05
2022-12-31T20:31:08.286Z,1.30
2022-12-31T20:33:36.314Z,1.25
2022-12-31T20:36:04.801Z,1.10
2022-12-31T20:38:32.754Z,1.20
2022-12-31T20:41:06.284Z,1.20
2022-12-31T20:43:35.091Z,1.15
2022-12-31T20:48:43.998Z,1.35
2022-12-31T20:51:12.993Z,1.33
2022-12-31T20:53:41.351Z,1.27
2022-12-31T20:56:10.720Z,0.90
2022-12-31T21:01:09.053Z,1.35
2022-12-31T21:04:04.367Z,1.17
2022-12-31T21:06:26.464Z,1.00
2022-12-31T21:08:57.717Z,1.20
2022-12-31T21:11:44.869Z,1.20
2022-12-31T21:14:14.003Z,1.75
2022-12-31T21:16:41.972Z,1.45
2022-12-31T21:19:10.729Z,1.20
2022-12-31T21:21:39.855Z,1.40
2022-12-31T21:24:08.186Z,1.50
2022-12-31T21:26:38.002Z,1.00
2022-12-31T21:29:06.420Z,1.45
2022-12-31T21:31:34.430Z,1.15
2022-12-31T21:34:02.961Z,1.60
2022-12-31T21:36:31.299Z,1.10
2022-12-31T21:39:00.978Z,1.38
2022-12-31T21:41:47.016Z,1.65
2022-12-31T21:44:16.328Z,1.50
2022-12-31T21:47:16.020Z,1.60
2022-12-31T21:49:33.794Z,1.85
2022-12-31T21:52:19.054Z,1.60
2022-12-31T21:55:04.419Z,1.30
2022-12-31T21:57:51.956Z,2.17
2022-12-31T22:00:42.723Z,1.30
2022-12-31T22:03:25.195Z,1.60
2022-12-31T22:05:55.932Z,1.25
2022-12-31T22:08:24.715Z,1.13
2022-12-31T22:10:53.290Z,1.75
2022-12-31T22:13:22.249Z,1.45
2022-12-31T22:16:04.365Z,1.63
2022-12-31T22:18:36.015Z,1.83
2022-12-31T22:21:05.841Z,1.30
2022-12-31T22:23:36.563Z,1.75
2022-12-31T22:26:05.864Z,1.15
2022-12-31T22:28:39.083Z,1.77
2022-12-31T22:31:10.806Z,1.48
2022-12-31T22:33:38.860Z,1.92
2022-12-31T22:36:09.576Z,1.95
2022-12-31T22:38:38.520Z,1.10
2022-12-31T22:41:08.333Z,1.50
2022-12-31T22:43:39.564Z,2.50
2022-12-31T22:46:10.956Z,1.33
2022-12-31T22:48:40.329Z,2.30
2022-12-31T22:53:38.579Z,1.88
2022-12-31T22:56:08.174Z,1.77
2022-12-31T22:58:36.525Z,1.67
2022-12-31T23:01:07.016Z,2.45
2022-12-31T23:03:37.465Z,7.43
2022-12-31T23:06:05.900Z,12.50
2022-12-31T23:08:33.889Z,7.15
2022-12-31T23:11:01.936Z,7.47
2022-12-31T23:13:51.409Z,11.88
2022-12-31T23:16:38.379Z,16.13
2022-12-31T23:19:26.689Z,11.13
2022-12-31T23:22:12.384Z,9.13
2022-12-31T23:24:41.580Z,8.90
2022-12-31T23:27:10.158Z,8.90
2022-12-31T23:29:46.191Z,6.80
2022-12-31T23:32:16.646Z,7.53
2022-12-31T23:34:47.354Z,5.15
2022-12-31T23:37:16.815Z,6.45
2022-12-31T23:39:44.735Z,6.13
2022-12-31T23:42:13.172Z,7.00
2022-12-31T23:44:41.544Z,4.55
2022-12-31T23:47:09.504Z,4.70
2022-12-31T23:49:37.476Z,3.53
2022-12-31T23:52:07.669Z,17.10
2022-12-31T23:57:04.048Z,3.58
2022-12-31T23:59:32.857Z,3.17
